Cascade Summit, Oregon
Current Conditions -  °F | °C
As of 4:55 AM on Sunday 21 Dec 2014 (Local Time) from KBDN Reporting Station
Light Rain Light Rain  
Wind Chill: 46°   Ceiling: Unl
Heat Index: 46°   Visibility: 10mi
Dew Point: 45°   Wind: 0mph
Humidity: 93%   Direction: NA
Pressure: 29.9"   Gusts: NA
Location:  43.5071°N, 121.968°W
Report Text: KBDN 211255Z AUTO 00000KT 10SM -RA CLR 08/07 A2990 RMK AO2
Loading
Personal Weather Stations






























Interactive Weather Map New forecast layout! Learn more

10-Day Weather Forecast

Advertisements
Track Severe Weather on mobile